createdAt,value
2023-03-12T00:00:13.088Z,61.35
2023-03-12T00:03:00.906Z,61.64
2023-03-12T00:05:28.787Z,61.84
2023-03-12T00:07:59.834Z,61.92
2023-03-12T00:10:28.333Z,63.14
2023-03-12T00:12:56.353Z,68.63
2023-03-12T00:15:24.785Z,62.00
2023-03-12T00:17:52.635Z,56.34
2023-03-12T00:20:22.014Z,54.98
2023-03-12T00:22:52.903Z,55.08
2023-03-12T00:25:21.235Z,55.68
2023-03-12T00:27:49.060Z,56.40
2023-03-12T00:30:17.067Z,57.59
2023-03-12T00:32:45.219Z,58.17
2023-03-12T00:35:13.158Z,58.24
2023-03-12T00:37:41.103Z,58.70
2023-03-12T00:40:11.411Z,60.27
2023-03-12T00:42:39.892Z,60.17
2023-03-12T00:45:08.195Z,60.39
2023-03-12T00:47:36.124Z,60.68
2023-03-12T00:50:04.622Z,60.99
2023-03-12T00:52:32.378Z,64.07
2023-03-12T00:55:00.280Z,66.87
2023-03-12T00:57:28.500Z,62.26
2023-03-12T00:59:56.282Z,57.21
2023-03-12T01:02:24.021Z,54.13
2023-03-12T01:04:51.799Z,53.92
2023-03-12T01:07:19.611Z,56.17
2023-03-12T01:09:47.311Z,57.36
2023-03-12T01:12:15.107Z,59.10
2023-03-12T01:14:42.813Z,59.83
2023-03-12T01:17:10.734Z,60.65
2023-03-12T01:19:38.530Z,60.89
2023-03-12T01:22:06.321Z,61.15
2023-03-12T01:24:34.050Z,64.05
2023-03-12T01:27:01.800Z,67.04
2023-03-12T01:29:29.710Z,60.09
2023-03-12T01:31:57.957Z,54.30
2023-03-12T01:34:25.901Z,54.44
2023-03-12T01:36:53.722Z,56.27
2023-03-12T01:39:21.522Z,57.73
2023-03-12T01:41:49.329Z,59.04
2023-03-12T01:44:17.537Z,60.65
2023-03-12T01:46:48.315Z,61.33
2023-03-12T01:49:32.730Z,62.52
2023-03-12T01:52:05.966Z,60.88
2023-03-12T01:54:47.799Z,57.53
2023-03-12T01:57:19.378Z,56.93
2023-03-12T01:59:51.566Z,58.75
2023-03-12T02:02:24.974Z,59.89
2023-03-12T02:05:04.571Z,61.11
2023-03-12T02:07:33.964Z,64.53
2023-03-12T02:10:02.334Z,61.36
2023-03-12T02:12:30.142Z,55.02
2023-03-12T02:14:58.081Z,55.71
2023-03-12T02:17:26.027Z,56.90
2023-03-12T02:20:21.307Z,58.75
2023-03-12T02:23:03.100Z,60.71
2023-03-12T02:25:40.106Z,62.01
2023-03-12T02:28:15.023Z,62.69
2023-03-12T02:30:47.880Z,58.60
2023-03-12T02:33:16.126Z,56.84
2023-03-12T02:35:46.440Z,57.72
2023-03-12T02:38:35.669Z,59.65
2023-03-12T02:41:10.536Z,60.15
2023-03-12T02:43:39.316Z,62.15
2023-03-12T02:46:08.262Z,62.80
2023-03-12T02:48:36.105Z,60.21
2023-03-12T02:51:04.627Z,55.99
2023-03-12T02:53:32.965Z,56.74
2023-03-12T02:56:01.114Z,58.30
2023-03-12T02:58:29.508Z,59.62
2023-03-12T03:00:57.491Z,60.30
2023-03-12T03:03:25.300Z,61.61
2023-03-12T03:05:53.091Z,62.24
2023-03-12T03:08:20.964Z,62.73
2023-03-12T03:10:51.963Z,59.78
2023-03-12T03:13:20.163Z,55.84
2023-03-12T03:15:48.169Z,56.74
2023-03-12T03:18:16.086Z,58.55
2023-03-12T03:20:44.648Z,59.69
2023-03-12T03:23:12.583Z,60.49
2023-03-12T03:25:41.212Z,61.71
2023-03-12T03:28:08.986Z,62.06
2023-03-12T03:30:36.780Z,62.24
2023-03-12T03:33:05.344Z,63.19
2023-03-12T03:35:36.884Z,62.84
2023-03-12T03:38:05.498Z,57.15
2023-03-12T03:40:33.574Z,54.48
2023-03-12T03:43:01.535Z,55.83
2023-03-12T03:45:30.011Z,57.33
2023-03-12T03:47:57.831Z,58.03
2023-03-12T03:50:25.823Z,59.74
2023-03-12T03:52:53.839Z,60.22
2023-03-12T03:55:22.403Z,60.75
2023-03-12T03:57:50.428Z,60.28
2023-03-12T04:00:18.763Z,61.90
2023-03-12T04:02:46.949Z,62.38
2023-03-12T04:05:19.459Z,62.93
2023-03-12T04:07:47.967Z,60.76
2023-03-12T04:10:16.722Z,55.51
2023-03-12T04:12:44.737Z,54.51
2023-03-12T04:15:12.651Z,56.04
2023-03-12T04:17:41.013Z,57.57
2023-03-12T04:20:11.281Z,58.62
2023-03-12T04:22:39.627Z,59.40
2023-03-12T04:25:08.193Z,60.41
2023-03-12T04:27:36.410Z,60.77
2023-03-12T04:30:05.098Z,60.99
2023-03-12T04:32:36.836Z,61.58
2023-03-12T04:35:05.301Z,61.49
2023-03-12T04:37:34.310Z,62.01
2023-03-12T04:40:05.045Z,63.08
2023-03-12T04:42:35.539Z,62.16
2023-03-12T04:45:08.194Z,56.63
2023-03-12T04:47:38.036Z,54.98
2023-03-12T04:50:07.366Z,56.34
2023-03-12T04:52:35.723Z,57.10
2023-03-12T04:55:04.360Z,58.37
2023-03-12T04:57:32.785Z,59.09
2023-03-12T05:00:01.114Z,60.10
2023-03-12T05:02:29.081Z,59.94
2023-03-12T05:04:57.634Z,60.82
2023-03-12T05:07:25.688Z,61.52
2023-03-12T05:09:53.428Z,61.41
2023-03-12T05:12:21.202Z,62.18
2023-03-12T05:14:49.203Z,62.01
2023-03-12T05:17:17.434Z,62.32
2023-03-12T05:19:45.330Z,62.51
2023-03-12T05:22:13.209Z,63.64
2023-03-12T05:24:41.077Z,59.28
2023-03-12T05:27:09.201Z,54.85
2023-03-12T05:29:37.201Z,55.26
2023-03-12T05:32:07.519Z,56.92
2023-03-12T05:34:36.378Z,58.01
2023-03-12T05:37:04.644Z,58.85
2023-03-12T05:39:33.158Z,59.29
2023-03-12T05:42:05.299Z,60.42
2023-03-12T05:44:35.413Z,60.49
2023-03-12T05:47:03.399Z,61.02
2023-03-12T05:49:31.512Z,61.21
2023-03-12T05:51:59.990Z,61.49
2023-03-12T05:54:27.792Z,61.29
2023-03-12T05:56:56.398Z,61.28
2023-03-12T05:59:25.065Z,61.78
2023-03-12T06:01:53.635Z,61.83
2023-03-12T06:04:21.775Z,61.69
2023-03-12T06:06:49.676Z,61.93
2023-03-12T06:09:17.758Z,61.94
2023-03-12T06:11:45.554Z,61.71
2023-03-12T06:14:14.792Z,61.71
2023-03-12T06:16:43.107Z,61.31
2023-03-12T06:19:14.163Z,61.34
2023-03-12T06:21:43.962Z,61.64
2023-03-12T06:24:11.953Z,61.77
2023-03-12T06:26:44.652Z,61.45
2023-03-12T06:29:12.520Z,61.01
2023-03-12T06:31:42.199Z,60.80
2023-03-12T06:34:10.408Z,60.50
2023-03-12T06:36:39.171Z,60.36
2023-03-12T06:39:08.139Z,60.78
2023-03-12T06:41:36.541Z,60.69
2023-03-12T06:44:06.537Z,60.33
2023-03-12T06:46:34.620Z,60.07
2023-03-12T06:49:03.028Z,60.05
2023-03-12T06:51:31.528Z,59.94
2023-03-12T06:54:02.326Z,59.79
2023-03-12T06:56:31.257Z,59.54
2023-03-12T06:58:59.688Z,59.61
2023-03-12T07:01:27.790Z,59.61
2023-03-12T07:03:55.934Z,59.37
2023-03-12T07:06:25.020Z,58.84
2023-03-12T07:08:53.980Z,58.63
2023-03-12T07:11:21.884Z,58.69
2023-03-12T07:13:50.226Z,58.73
2023-03-12T07:16:18.692Z,58.32
2023-03-12T07:18:46.824Z,58.00
2023-03-12T07:21:22.834Z,57.93
2023-03-12T07:23:51.600Z,58.16
2023-03-12T07:26:20.293Z,58.00
2023-03-12T07:28:48.280Z,57.48
2023-03-12T07:31:16.437Z,57.03
2023-03-12T07:33:44.874Z,56.84
2023-03-12T07:36:13.089Z,57.04
2023-03-12T07:38:41.554Z,57.56
2023-03-12T07:41:09.964Z,57.11
2023-03-12T07:43:38.340Z,56.83
2023-03-12T07:46:06.838Z,56.83
2023-03-12T07:48:34.970Z,56.91
2023-03-12T07:51:03.601Z,56.87
2023-03-12T07:53:31.732Z,56.64
2023-03-12T07:55:59.835Z,56.41
2023-03-12T07:58:28.187Z,56.28
2023-03-12T08:00:56.909Z,56.38
2023-03-12T08:03:25.079Z,56.41
2023-03-12T08:06:01.446Z,56.71
2023-03-12T08:08:31.569Z,56.19
2023-03-12T08:11:00.330Z,56.48
2023-03-12T08:13:28.497Z,56.52
2023-03-12T08:15:56.809Z,55.91
2023-03-12T08:18:24.958Z,55.35
2023-03-12T08:20:54.278Z,55.09
2023-03-12T08:23:22.826Z,55.30
2023-03-12T08:25:51.423Z,55.10
2023-03-12T08:28:20.328Z,54.50
2023-03-12T08:30:50.391Z,53.99
2023-03-12T08:33:18.425Z,54.31
2023-03-12T08:35:47.092Z,54.01
2023-03-12T08:38:15.514Z,53.99
2023-03-12T08:40:43.493Z,54.52
2023-03-12T08:43:11.903Z,54.49
2023-03-12T08:45:40.100Z,54.57
2023-03-12T08:48:08.884Z,54.23
2023-03-12T08:50:37.359Z,53.90
2023-03-12T08:53:05.524Z,54.18
2023-03-12T08:55:33.581Z,54.28
2023-03-12T08:58:01.526Z,53.78
2023-03-12T17:27:18.139Z,44.33
2023-03-12T17:29:47.106Z,44.18
2023-03-12T17:32:15.218Z,44.21
2023-03-12T17:34:43.481Z,44.31
2023-03-12T17:37:12.170Z,44.37
2023-03-12T17:39:40.122Z,44.50
2023-03-12T17:42:08.099Z,44.76
2023-03-12T17:44:36.964Z,45.16
2023-03-12T17:47:05.702Z,45.19
2023-03-12T17:49:33.823Z,45.79
2023-03-12T17:52:03.204Z,45.98
2023-03-12T17:54:32.463Z,46.45
2023-03-12T17:57:00.550Z,46.74
2023-03-12T17:59:29.188Z,46.85
2023-03-12T18:01:57.432Z,47.11
2023-03-12T18:04:25.684Z,47.72
2023-03-12T18:06:54.100Z,47.64
2023-03-12T18:09:22.751Z,48.03
2023-03-12T18:11:51.073Z,48.22
2023-03-12T18:14:18.926Z,48.82
2023-03-12T18:16:47.647Z,48.60
2023-03-12T18:19:16.365Z,48.44
2023-03-12T18:21:44.508Z,48.43
2023-03-12T18:24:14.534Z,48.35
2023-03-12T18:26:43.126Z,48.56
2023-03-12T18:29:11.928Z,48.87
2023-03-12T18:31:39.865Z,49.11
2023-03-12T18:34:08.067Z,49.16
2023-03-12T18:36:36.130Z,49.46
2023-03-12T18:39:05.226Z,49.54
2023-03-12T18:41:33.631Z,49.67
2023-03-12T18:44:01.797Z,49.69
2023-03-12T18:46:29.821Z,49.74
2023-03-12T18:49:04.309Z,49.80
2023-03-12T18:51:32.397Z,49.84
2023-03-12T18:54:00.858Z,49.99
2023-03-12T18:56:29.066Z,50.13
2023-03-12T18:58:57.531Z,50.05
2023-03-12T19:01:26.214Z,50.01
2023-03-12T19:03:54.071Z,49.84
2023-03-12T19:06:22.179Z,49.81
2023-03-12T19:08:50.511Z,50.21
2023-03-12T19:11:18.711Z,50.06
2023-03-12T19:13:52.130Z,50.11
2023-03-12T19:16:23.925Z,50.21
2023-03-12T19:18:51.845Z,50.10
2023-03-12T19:21:19.774Z,49.99
2023-03-12T19:23:48.311Z,49.86
2023-03-12T19:26:16.556Z,49.81
2023-03-12T19:28:44.551Z,49.62
2023-03-12T19:31:15.688Z,49.70
2023-03-12T19:33:44.909Z,49.55
2023-03-12T19:36:12.675Z,49.76
2023-03-12T19:38:40.777Z,49.83
2023-03-12T19:41:09.206Z,50.05
2023-03-12T19:43:38.146Z,49.79
2023-03-12T19:46:06.034Z,49.77
2023-03-12T19:48:34.103Z,49.59
2023-03-12T19:51:09.175Z,49.58
2023-03-12T19:53:37.742Z,49.53
2023-03-12T19:56:06.493Z,49.70
2023-03-12T19:58:34.382Z,50.45
2023-03-12T20:01:02.622Z,50.64
2023-03-12T20:03:32.943Z,50.93
2023-03-12T20:06:01.345Z,51.06
2023-03-12T20:08:31.988Z,51.36
2023-03-12T20:11:08.173Z,51.14
2023-03-12T20:13:38.718Z,51.30
2023-03-12T20:16:09.187Z,51.30
2023-03-12T20:18:38.374Z,51.60
2023-03-12T20:21:06.143Z,51.66
2023-03-12T20:23:34.003Z,51.70
2023-03-12T20:26:01.835Z,51.94
2023-03-12T20:28:29.681Z,51.90
2023-03-12T20:30:57.496Z,51.98
2023-03-12T20:33:25.618Z,51.94
2023-03-12T20:35:53.852Z,52.33
2023-03-12T20:38:21.617Z,52.66
2023-03-12T20:40:49.515Z,52.49
2023-03-12T20:43:17.960Z,52.79
2023-03-12T20:45:49.271Z,53.16
2023-03-12T20:48:18.781Z,53.35
2023-03-12T20:50:52.601Z,53.71
2023-03-12T20:53:20.361Z,55.21
2023-03-12T20:55:49.109Z,55.63
2023-03-12T20:58:16.959Z,56.66
2023-03-12T21:00:45.601Z,58.12
2023-03-12T21:03:14.611Z,59.11
2023-03-12T21:05:56.512Z,59.10
2023-03-12T21:08:25.133Z,59.54
2023-03-12T21:10:53.437Z,60.35
2023-03-12T21:13:22.945Z,60.82
2023-03-12T21:15:51.229Z,64.17
2023-03-12T21:18:19.150Z,69.61
2023-03-12T21:20:47.156Z,66.41
2023-03-12T21:23:15.067Z,61.01
2023-03-12T21:25:43.297Z,55.07
2023-03-12T21:28:11.350Z,52.84
2023-03-12T21:30:39.346Z,53.49
2023-03-12T21:33:07.459Z,54.32
2023-03-12T21:35:35.337Z,55.27
2023-03-12T21:38:03.231Z,55.84
2023-03-12T21:40:31.057Z,56.48
2023-03-12T21:42:58.915Z,57.17
2023-03-12T21:45:26.858Z,57.18
2023-03-12T21:47:54.873Z,57.95
2023-03-12T21:50:22.982Z,58.78
2023-03-12T21:52:51.796Z,59.15
2023-03-12T21:55:19.535Z,60.15
2023-03-12T21:57:47.479Z,61.15
2023-03-12T22:00:16.335Z,61.75
2023-03-12T22:02:45.751Z,65.99
2023-03-12T22:05:13.724Z,67.09
2023-03-12T22:07:41.490Z,61.59
2023-03-12T22:10:11.970Z,55.73
2023-03-12T22:12:40.104Z,53.50
2023-03-12T22:15:09.070Z,53.88
2023-03-12T22:17:36.902Z,54.69
2023-03-12T22:20:07.949Z,55.47
2023-03-12T22:22:35.753Z,56.17
2023-03-12T22:25:03.711Z,56.58
2023-03-12T22:27:31.572Z,57.23
2023-03-12T22:29:59.496Z,57.79
2023-03-12T22:32:27.977Z,58.42
2023-03-12T22:34:55.773Z,59.01
2023-03-12T22:37:23.641Z,59.51
2023-03-12T22:39:51.575Z,59.76
2023-03-12T22:42:19.327Z,59.67
2023-03-12T22:44:47.183Z,59.63
2023-03-12T22:47:14.970Z,60.38
2023-03-12T22:49:42.829Z,60.52
2023-03-12T22:52:10.574Z,60.77
2023-03-12T22:54:38.286Z,61.06
2023-03-12T22:57:06.105Z,61.24
2023-03-12T22:59:33.956Z,61.18
2023-03-12T23:02:01.899Z,61.55
2023-03-12T23:04:29.917Z,61.76
2023-03-12T23:07:12.904Z,61.89
2023-03-12T23:09:41.720Z,66.01
2023-03-12T23:12:09.519Z,67.91
2023-03-12T23:14:37.280Z,62.96
2023-03-12T23:17:05.167Z,56.28
2023-03-12T23:19:33.925Z,53.35
2023-03-12T23:22:01.853Z,53.61
2023-03-12T23:24:30.967Z,54.33
2023-03-12T23:26:59.420Z,54.97
2023-03-12T23:29:27.387Z,55.68
2023-03-12T23:31:55.239Z,56.37
2023-03-12T23:34:23.067Z,57.12
2023-03-12T23:36:50.820Z,57.48
2023-03-12T23:39:18.755Z,57.92
2023-03-12T23:41:46.528Z,58.53
2023-03-12T23:44:14.375Z,58.60
2023-03-12T23:46:44.991Z,59.31
2023-03-12T23:49:12.853Z,60.14
2023-03-12T23:51:43.735Z,60.90
2023-03-12T23:54:11.580Z,61.28
2023-03-12T23:56:40.688Z,61.65
2023-03-12T23:59:10.154Z,61.85
